sensor_id;sensor_type;location;lat;lon;timestamp;pressure;altitude;pressure_sealevel;temperature
79495;BMP180;68951;53.130;18.104;2023-06-26T00:02:16;101164.40;;;
79495;BMP180;68951;53.130;18.104;2023-06-26T00:04:43;101160.60;;;
79495;BMP180;68951;53.130;18.104;2023-06-26T00:07:10;101159.00;;;
79495;BMP180;68951;53.130;18.104;2023-06-26T00:09:37;101160.80;;;
79495;BMP180;68951;53.130;18.104;2023-06-26T00:12:04;101159.80;;;
79495;BMP180;68951;53.130;18.104;2023-06-26T00:14:31;101163.00;;;
79495;BMP180;68951;53.130;18.104;2023-06-26T00:16:58;101162.40;;;
79495;BMP180;68951;53.130;18.104;2023-06-26T00:19:25;101164.60;;;
79495;BMP180;68951;53.130;18.104;2023-06-26T00:21:52;101163.40;;;
79495;BMP180;68951;53.130;18.104;2023-06-26T00:24:18;101166.00;;;
79495;BMP180;68951;53.130;18.104;2023-06-26T00:26:47;101170.20;;;
79495;BMP180;68951;53.130;18.104;2023-06-26T00:29:14;101165.40;;;
79495;BMP180;68951;53.130;18.104;2023-06-26T00:31:41;101161.60;;;
79495;BMP180;68951;53.130;18.104;2023-06-26T00:34:08;101163.60;;;
79495;BMP180;68951;53.130;18.104;2023-06-26T00:36:35;101162.40;;;
79495;BMP180;68951;53.130;18.104;2023-06-26T00:39:02;101158.20;;;
79495;BMP180;68951;53.130;18.104;2023-06-26T00:41:29;101157.60;;;
79495;BMP180;68951;53.130;18.104;2023-06-26T00:43:56;101158.40;;;
79495;BMP180;68951;53.130;18.104;2023-06-26T00:46:23;101155.60;;;
79495;BMP180;68951;53.130;18.104;2023-06-26T00:48:52;101152.20;;;
79495;BMP180;68951;53.130;18.104;2023-06-26T00:51:19;101147.80;;;
79495;BMP180;68951;53.130;18.104;2023-06-26T00:53:47;101148.40;;;
79495;BMP180;68951;53.130;18.104;2023-06-26T00:56:15;101146.40;;;
79495;BMP180;68951;53.130;18.104;2023-06-26T00:58:43;101144.60;;;
79495;BMP180;68951;53.130;18.104;2023-06-26T01:01:10;101149.80;;;
79495;BMP180;68951;53.130;18.104;2023-06-26T01:03:44;101144.20;;;
79495;BMP180;68951;53.130;18.104;2023-06-26T01:06:14;101142.80;;;
79495;BMP180;68951;53.130;18.104;2023-06-26T01:08:42;101139.80;;;
79495;BMP180;68951;53.130;18.104;2023-06-26T01:11:11;101143.20;;;
79495;BMP180;68951;53.130;18.104;2023-06-26T01:13:39;101146.80;;;
79495;BMP180;68951;53.130;18.104;2023-06-26T01:16:08;101144.80;;;
79495;BMP180;68951;53.130;18.104;2023-06-26T01:18:38;101141.00;;;
79495;BMP180;68951;53.130;18.104;2023-06-26T01:21:10;101137.80;;;
79495;BMP180;68951;53.130;18.104;2023-06-26T01:24:07;101135.60;;;
79495;BMP180;68951;53.130;18.104;2023-06-26T01:26:36;101132.00;;;
79495;BMP180;68951;53.130;18.104;2023-06-26T01:29:07;101130.00;;;
79495;BMP180;68951;53.130;18.104;2023-06-26T01:31:36;101124.20;;;
79495;BMP180;68951;53.130;18.104;2023-06-26T01:34:03;101127.00;;;
79495;BMP180;68951;53.130;18.104;2023-06-26T01:36:30;101124.00;;;
79495;BMP180;68951;53.130;18.104;2023-06-26T01:38:57;101122.60;;;
79495;BMP180;68951;53.130;18.104;2023-06-26T01:41:25;101119.80;;;
79495;BMP180;68951;53.130;18.104;2023-06-26T01:47:03;101116.20;;;
79495;BMP180;68951;53.130;18.104;2023-06-26T01:52:24;101113.40;;;
79495;BMP180;68951;53.130;18.104;2023-06-26T01:57:39;101111.60;;;
79495;BMP180;68951;53.130;18.104;2023-06-26T02:00:06;101109.40;;;
79495;BMP180;68951;53.130;18.104;2023-06-26T02:02:37;101102.20;;;
79495;BMP180;68951;53.130;18.104;2023-06-26T02:05:03;101103.00;;;
79495;BMP180;68951;53.130;18.104;2023-06-26T02:07:30;101103.00;;;
79495;BMP180;68951;53.130;18.104;2023-06-26T02:09:57;101099.60;;;
79495;BMP180;68951;53.130;18.104;2023-06-26T02:12:24;101097.20;;;
79495;BMP180;68951;53.130;18.104;2023-06-26T02:14:51;101093.80;;;
79495;BMP180;68951;53.130;18.104;2023-06-26T02:17:18;101097.40;;;
79495;BMP180;68951;53.130;18.104;2023-06-26T02:19:44;101099.20;;;
79495;BMP180;68951;53.130;18.104;2023-06-26T02:22:15;101095.40;;;
79495;BMP180;68951;53.130;18.104;2023-06-26T02:24:43;101089.60;;;
79495;BMP180;68951;53.130;18.104;2023-06-26T02:27:11;101089.60;;;
79495;BMP180;68951;53.130;18.104;2023-06-26T02:29:38;101087.00;;;
79495;BMP180;68951;53.130;18.104;2023-06-26T02:32:06;101088.60;;;
79495;BMP180;68951;53.130;18.104;2023-06-26T02:34:34;101090.20;;;
79495;BMP180;68951;53.130;18.104;2023-06-26T02:37:01;101096.40;;;
79495;BMP180;68951;53.130;18.104;2023-06-26T02:39:28;101104.20;;;
79495;BMP180;68951;53.130;18.104;2023-06-26T02:41:55;101103.20;;;
79495;BMP180;68951;53.130;18.104;2023-06-26T02:44:21;101100.00;;;
79495;BMP180;68951;53.130;18.104;2023-06-26T02:46:48;101105.60;;;
79495;BMP180;68951;53.130;18.104;2023-06-26T02:49:15;101103.80;;;
79495;BMP180;68951;53.130;18.104;2023-06-26T02:51:42;101107.20;;;
79495;BMP180;68951;53.130;18.104;2023-06-26T02:54:09;101104.40;;;
79495;BMP180;68951;53.130;18.104;2023-06-26T02:56:36;101106.40;;;
79495;BMP180;68951;53.130;18.104;2023-06-26T02:59:02;101109.20;;;
79495;BMP180;68951;53.130;18.104;2023-06-26T03:01:29;101103.00;;;
79495;BMP180;68951;53.130;18.104;2023-06-26T03:03:56;101101.80;;;
79495;BMP180;68951;53.130;18.104;2023-06-26T03:06:23;101099.00;;;
79495;BMP180;68951;53.130;18.104;2023-06-26T03:08:49;101104.00;;;
79495;BMP180;68951;53.130;18.104;2023-06-26T03:11:16;101102.40;;;
79495;BMP180;68951;53.130;18.104;2023-06-26T03:13:43;101100.40;;;
79495;BMP180;68951;53.130;18.104;2023-06-26T03:16:10;101100.40;;;
79495;BMP180;68951;53.130;18.104;2023-06-26T03:18:37;101094.20;;;
79495;BMP180;68951;53.130;18.104;2023-06-26T03:21:04;101093.60;;;
79495;BMP180;68951;53.130;18.104;2023-06-26T03:23:30;101091.40;;;
79495;BMP180;68951;53.130;18.104;2023-06-26T03:25:57;101088.20;;;
79495;BMP180;68951;53.130;18.104;2023-06-26T03:28:24;101088.00;;;
79495;BMP180;68951;53.130;18.104;2023-06-26T03:30:51;101087.00;;;
79495;BMP180;68951;53.130;18.104;2023-06-26T03:33:18;101088.60;;;
79495;BMP180;68951;53.130;18.104;2023-06-26T03:35:45;101086.20;;;
79495;BMP180;68951;53.130;18.104;2023-06-26T03:38:12;101090.00;;;
79495;BMP180;68951;53.130;18.104;2023-06-26T03:40:39;101089.20;;;
79495;BMP180;68951;53.130;18.104;2023-06-26T03:43:05;101088.40;;;
79495;BMP180;68951;53.130;18.104;2023-06-26T03:45:32;101090.40;;;
79495;BMP180;68951;53.130;18.104;2023-06-26T03:47:59;101089.00;;;
79495;BMP180;68951;53.130;18.104;2023-06-26T03:50:26;101088.80;;;
79495;BMP180;68951;53.130;18.104;2023-06-26T03:52:53;101090.00;;;
79495;BMP180;68951;53.130;18.104;2023-06-26T03:55:21;101092.20;;;
79495;BMP180;68951;53.130;18.104;2023-06-26T03:57:50;101088.20;;;
79495;BMP180;68951;53.130;18.104;2023-06-26T04:00:17;101085.80;;;
79495;BMP180;68951;53.130;18.104;2023-06-26T04:02:44;101082.80;;;
79495;BMP180;68951;53.130;18.104;2023-06-26T04:05:11;101081.20;;;
79495;BMP180;68951;53.130;18.104;2023-06-26T04:07:38;101083.20;;;
79495;BMP180;68951;53.130;18.104;2023-06-26T04:10:06;101087.00;;;
79495;BMP180;68951;53.130;18.104;2023-06-26T04:12:33;101092.60;;;
79495;BMP180;68951;53.130;18.104;2023-06-26T04:15:00;101091.20;;;
79495;BMP180;68951;53.130;18.104;2023-06-26T04:17:27;101087.80;;;
79495;BMP180;68951;53.130;18.104;2023-06-26T04:19:54;101087.40;;;
79495;BMP180;68951;53.130;18.104;2023-06-26T04:22:20;101088.40;;;
79495;BMP180;68951;53.130;18.104;2023-06-26T04:24:47;101084.80;;;
79495;BMP180;68951;53.130;18.104;2023-06-26T04:27:14;101092.00;;;
79495;BMP180;68951;53.130;18.104;2023-06-26T04:29:41;101091.60;;;
79495;BMP180;68951;53.130;18.104;2023-06-26T04:32:08;101089.40;;;
79495;BMP180;68951;53.130;18.104;2023-06-26T04:34:35;101090.00;;;
79495;BMP180;68951;53.130;18.104;2023-06-26T04:37:03;101088.20;;;
79495;BMP180;68951;53.130;18.104;2023-06-26T04:39:33;101087.40;;;
79495;BMP180;68951;53.130;18.104;2023-06-26T04:41:59;101087.40;;;
79495;BMP180;68951;53.130;18.104;2023-06-26T04:44:26;101090.40;;;
79495;BMP180;68951;53.130;18.104;2023-06-26T04:46:53;101092.60;;;
79495;BMP180;68951;53.130;18.104;2023-06-26T04:49:20;101087.00;;;
79495;BMP180;68951;53.130;18.104;2023-06-26T04:51:46;101091.60;;;
79495;BMP180;68951;53.130;18.104;2023-06-26T04:54:15;101089.20;;;
79495;BMP180;68951;53.130;18.104;2023-06-26T04:56:42;101087.80;;;
79495;BMP180;68951;53.130;18.104;2023-06-26T04:59:10;101087.00;;;
79495;BMP180;68951;53.130;18.104;2023-06-26T05:01:39;101093.80;;;
79495;BMP180;68951;53.130;18.104;2023-06-26T05:04:07;101094.60;;;
79495;BMP180;68951;53.130;18.104;2023-06-26T05:06:34;101099.00;;;
79495;BMP180;68951;53.130;18.104;2023-06-26T05:09:01;101099.60;;;
79495;BMP180;68951;53.130;18.104;2023-06-26T05:11:27;101097.20;;;
79495;BMP180;68951;53.130;18.104;2023-06-26T05:13:54;101094.80;;;
79495;BMP180;68951;53.130;18.104;2023-06-26T05:16:21;101092.80;;;
79495;BMP180;68951;53.130;18.104;2023-06-26T05:18:48;101089.80;;;
79495;BMP180;68951;53.130;18.104;2023-06-26T05:21:16;101086.00;;;
79495;BMP180;68951;53.130;18.104;2023-06-26T05:23:44;101084.80;;;
79495;BMP180;68951;53.130;18.104;2023-06-26T05:26:12;101086.60;;;
79495;BMP180;68951;53.130;18.104;2023-06-26T05:28:40;101087.80;;;
79495;BMP180;68951;53.130;18.104;2023-06-26T05:31:07;101087.40;;;
79495;BMP180;68951;53.130;18.104;2023-06-26T05:33:36;101086.00;;;
79495;BMP180;68951;53.130;18.104;2023-06-26T05:36:04;101085.60;;;
79495;BMP180;68951;53.130;18.104;2023-06-26T05:38:34;101084.20;;;
79495;BMP180;68951;53.130;18.104;2023-06-26T05:41:01;101079.40;;;
79495;BMP180;68951;53.130;18.104;2023-06-26T05:43:28;101080.40;;;
79495;BMP180;68951;53.130;18.104;2023-06-26T05:45:57;101076.80;;;
79495;BMP180;68951;53.130;18.104;2023-06-26T05:48:26;101080.60;;;
79495;BMP180;68951;53.130;18.104;2023-06-26T05:50:54;101082.60;;;
79495;BMP180;68951;53.130;18.104;2023-06-26T05:53:22;101083.20;;;
79495;BMP180;68951;53.130;18.104;2023-06-26T05:55:49;101076.80;;;
79495;BMP180;68951;53.130;18.104;2023-06-26T05:58:17;101074.80;;;
79495;BMP180;68951;53.130;18.104;2023-06-26T06:00:44;101070.80;;;
79495;BMP180;68951;53.130;18.104;2023-06-26T06:03:11;101070.00;;;
79495;BMP180;68951;53.130;18.104;2023-06-26T06:05:38;101069.00;;;
79495;BMP180;68951;53.130;18.104;2023-06-26T06:08:05;101062.20;;;
79495;BMP180;68951;53.130;18.104;2023-06-26T06:10:32;101070.00;;;
79495;BMP180;68951;53.130;18.104;2023-06-26T06:12:58;101070.40;;;
79495;BMP180;68951;53.130;18.104;2023-06-26T06:15:25;101069.80;;;
79495;BMP180;68951;53.130;18.104;2023-06-26T06:17:52;101068.60;;;
79495;BMP180;68951;53.130;18.104;2023-06-26T06:20:19;101075.00;;;
79495;BMP180;68951;53.130;18.104;2023-06-26T06:22:46;101069.80;;;
79495;BMP180;68951;53.130;18.104;2023-06-26T06:25:15;101066.00;;;
79495;BMP180;68951;53.130;18.104;2023-06-26T06:27:42;101064.40;;;
79495;BMP180;68951;53.130;18.104;2023-06-26T06:30:10;101063.40;;;
79495;BMP180;68951;53.130;18.104;2023-06-26T06:32:37;101066.20;;;
79495;BMP180;68951;53.130;18.104;2023-06-26T06:35:05;101062.60;;;
79495;BMP180;68951;53.130;18.104;2023-06-26T06:37:38;101063.00;;;
79495;BMP180;68951;53.130;18.104;2023-06-26T06:40:06;101059.60;;;
79495;BMP180;68951;53.130;18.104;2023-06-26T06:42:33;101057.60;;;
79495;BMP180;68951;53.130;18.104;2023-06-26T06:45:05;101063.00;;;
79495;BMP180;68951;53.130;18.104;2023-06-26T06:47:33;101063.00;;;
79495;BMP180;68951;53.130;18.104;2023-06-26T06:50:01;101060.80;;;
79495;BMP180;68951;53.130;18.104;2023-06-26T06:52:39;101058.00;;;
79495;BMP180;68951;53.130;18.104;2023-06-26T06:55:07;101056.40;;;
79495;BMP180;68951;53.130;18.104;2023-06-26T06:57:38;101058.60;;;
79495;BMP180;68951;53.130;18.104;2023-06-26T07:00:09;101057.40;;;
79495;BMP180;68951;53.130;18.104;2023-06-26T07:02:38;101055.80;;;
79495;BMP180;68951;53.130;18.104;2023-06-26T07:05:05;101057.00;;;
79495;BMP180;68951;53.130;18.104;2023-06-26T07:07:34;101056.60;;;
79495;BMP180;68951;53.130;18.104;2023-06-26T07:10:08;101056.60;;;
79495;BMP180;68951;53.130;18.104;2023-06-26T07:12:35;101059.00;;;
79495;BMP180;68951;53.130;18.104;2023-06-26T07:15:04;101063.20;;;
79495;BMP180;68951;53.130;18.104;2023-06-26T07:17:33;101060.00;;;
79495;BMP180;68951;53.130;18.104;2023-06-26T07:20:02;101055.00;;;
79495;BMP180;68951;53.130;18.104;2023-06-26T07:22:35;101056.80;;;
79495;BMP180;68951;53.130;18.104;2023-06-26T07:25:03;101059.00;;;
79495;BMP180;68951;53.130;18.104;2023-06-26T07:27:31;101057.40;;;
79495;BMP180;68951;53.130;18.104;2023-06-26T07:29:59;101057.40;;;
79495;BMP180;68951;53.130;18.104;2023-06-26T07:32:26;101051.00;;;
79495;BMP180;68951;53.130;18.104;2023-06-26T07:34:53;101052.20;;;
79495;BMP180;68951;53.130;18.104;2023-06-26T07:37:20;101050.60;;;
79495;BMP180;68951;53.130;18.104;2023-06-26T07:39:48;101049.80;;;
79495;BMP180;68951;53.130;18.104;2023-06-26T07:42:15;101051.60;;;
79495;BMP180;68951;53.130;18.104;2023-06-26T07:44:42;101049.40;;;
79495;BMP180;68951;53.130;18.104;2023-06-26T07:47:10;101046.60;;;
79495;BMP180;68951;53.130;18.104;2023-06-26T07:49:39;101042.00;;;
79495;BMP180;68951;53.130;18.104;2023-06-26T07:52:07;101033.80;;;
79495;BMP180;68951;53.130;18.104;2023-06-26T07:54:37;101040.20;;;
79495;BMP180;68951;53.130;18.104;2023-06-26T07:57:05;101034.40;;;
79495;BMP180;68951;53.130;18.104;2023-06-26T07:59:39;101038.40;;;
79495;BMP180;68951;53.130;18.104;2023-06-26T08:02:06;101041.40;;;
79495;BMP180;68951;53.130;18.104;2023-06-26T08:04:33;101038.60;;;
79495;BMP180;68951;53.130;18.104;2023-06-26T08:07:01;101039.60;;;
79495;BMP180;68951;53.130;18.104;2023-06-26T08:09:29;101038.40;;;
79495;BMP180;68951;53.130;18.104;2023-06-26T08:11:57;101035.00;;;
79495;BMP180;68951;53.130;18.104;2023-06-26T08:14:24;101037.20;;;
79495;BMP180;68951;53.130;18.104;2023-06-26T08:16:51;101036.40;;;
79495;BMP180;68951;53.130;18.104;2023-06-26T08:19:18;101030.80;;;
79495;BMP180;68951;53.130;18.104;2023-06-26T08:21:46;101023.80;;;
79495;BMP180;68951;53.130;18.104;2023-06-26T08:24:14;101025.40;;;
79495;BMP180;68951;53.130;18.104;2023-06-26T08:26:45;101023.00;;;
79495;BMP180;68951;53.130;18.104;2023-06-26T08:29:12;101019.80;;;
79495;BMP180;68951;53.130;18.104;2023-06-26T08:31:40;101010.40;;;
79495;BMP180;68951;53.130;18.104;2023-06-26T08:34:08;101016.20;;;
79495;BMP180;68951;53.130;18.104;2023-06-26T08:36:35;101013.00;;;
79495;BMP180;68951;53.130;18.104;2023-06-26T08:39:02;101013.80;;;
79495;BMP180;68951;53.130;18.104;2023-06-26T08:41:29;101010.00;;;
79495;BMP180;68951;53.130;18.104;2023-06-26T08:43:56;101018.20;;;
79495;BMP180;68951;53.130;18.104;2023-06-26T08:46:23;101014.40;;;
79495;BMP180;68951;53.130;18.104;2023-06-26T08:48:57;101013.40;;;
79495;BMP180;68951;53.130;18.104;2023-06-26T08:51:27;101013.00;;;
79495;BMP180;68951;53.130;18.104;2023-06-26T08:54:01;101008.40;;;
79495;BMP180;68951;53.130;18.104;2023-06-26T08:56:37;101004.80;;;
79495;BMP180;68951;53.130;18.104;2023-06-26T08:59:06;101009.60;;;
79495;BMP180;68951;53.130;18.104;2023-06-26T09:01:34;101012.00;;;
79495;BMP180;68951;53.130;18.104;2023-06-26T09:04:01;101012.20;;;
79495;BMP180;68951;53.130;18.104;2023-06-26T09:06:29;101012.60;;;
79495;BMP180;68951;53.130;18.104;2023-06-26T09:08:56;101011.20;;;
79495;BMP180;68951;53.130;18.104;2023-06-26T09:11:23;101012.80;;;
79495;BMP180;68951;53.130;18.104;2023-06-26T09:13:51;101011.40;;;
79495;BMP180;68951;53.130;18.104;2023-06-26T09:16:25;101011.20;;;
79495;BMP180;68951;53.130;18.104;2023-06-26T09:18:53;101008.20;;;
79495;BMP180;68951;53.130;18.104;2023-06-26T09:21:21;101001.20;;;
79495;BMP180;68951;53.130;18.104;2023-06-26T09:23:52;101009.20;;;
79495;BMP180;68951;53.130;18.104;2023-06-26T09:26:21;101003.80;;;
79495;BMP180;68951;53.130;18.104;2023-06-26T09:28:49;101003.40;;;
79495;BMP180;68951;53.130;18.104;2023-06-26T09:31:16;101000.00;;;
79495;BMP180;68951;53.130;18.104;2023-06-26T09:33:43;100999.80;;;
79495;BMP180;68951;53.130;18.104;2023-06-26T09:36:20;100993.00;;;
79495;BMP180;68951;53.130;18.104;2023-06-26T09:38:50;100993.20;;;
79495;BMP180;68951;53.130;18.104;2023-06-26T09:41:18;100993.60;;;
79495;BMP180;68951;53.130;18.104;2023-06-26T09:43:49;100995.00;;;
79495;BMP180;68951;53.130;18.104;2023-06-26T09:46:26;100985.20;;;
79495;BMP180;68951;53.130;18.104;2023-06-26T09:49:10;100989.20;;;
79495;BMP180;68951;53.130;18.104;2023-06-26T09:51:40;100990.40;;;
79495;BMP180;68951;53.130;18.104;2023-06-26T09:54:09;100990.00;;;
79495;BMP180;68951;53.130;18.104;2023-06-26T09:56:36;100989.20;;;
79495;BMP180;68951;53.130;18.104;2023-06-26T09:59:05;100981.20;;;
79495;BMP180;68951;53.130;18.104;2023-06-26T10:01:33;100983.40;;;
79495;BMP180;68951;53.130;18.104;2023-06-26T10:04:00;100985.20;;;
79495;BMP180;68951;53.130;18.104;2023-06-26T10:06:33;100984.40;;;
79495;BMP180;68951;53.130;18.104;2023-06-26T10:09:03;100979.20;;;
79495;BMP180;68951;53.130;18.104;2023-06-26T10:11:55;100980.00;;;
79495;BMP180;68951;53.130;18.104;2023-06-26T10:14:27;100976.80;;;
79495;BMP180;68951;53.130;18.104;2023-06-26T10:17:01;100968.60;;;
79495;BMP180;68951;53.130;18.104;2023-06-26T10:19:32;100972.80;;;
79495;BMP180;68951;53.130;18.104;2023-06-26T10:22:02;100967.80;;;
79495;BMP180;68951;53.130;18.104;2023-06-26T10:24:35;100969.00;;;
79495;BMP180;68951;53.130;18.104;2023-06-26T10:27:14;100969.00;;;
79495;BMP180;68951;53.130;18.104;2023-06-26T10:29:50;100965.80;;;
79495;BMP180;68951;53.130;18.104;2023-06-26T10:32:21;100960.40;;;
79495;BMP180;68951;53.130;18.104;2023-06-26T10:34:49;100957.40;;;
79495;BMP180;68951;53.130;18.104;2023-06-26T10:37:16;100950.20;;;
79495;BMP180;68951;53.130;18.104;2023-06-26T10:39:51;100949.40;;;
79495;BMP180;68951;53.130;18.104;2023-06-26T10:42:35;100946.60;;;
79495;BMP180;68951;53.130;18.104;2023-06-26T10:45:29;100945.80;;;
79495;BMP180;68951;53.130;18.104;2023-06-26T10:47:57;100942.80;;;
79495;BMP180;68951;53.130;18.104;2023-06-26T10:50:30;100943.80;;;
79495;BMP180;68951;53.130;18.104;2023-06-26T10:56:02;100940.40;;;
79495;BMP180;68951;53.130;18.104;2023-06-26T11:01:25;100927.00;;;
79495;BMP180;68951;53.130;18.104;2023-06-26T11:06:24;100932.00;;;
79495;BMP180;68951;53.130;18.104;2023-06-26T11:08:54;100930.00;;;
79495;BMP180;68951;53.130;18.104;2023-06-26T11:14:30;100925.60;;;
79495;BMP180;68951;53.130;18.104;2023-06-26T11:16:58;100927.60;;;
79495;BMP180;68951;53.130;18.104;2023-06-26T11:19:27;100926.60;;;
79495;BMP180;68951;53.130;18.104;2023-06-26T11:22:04;100918.80;;;
79495;BMP180;68951;53.130;18.104;2023-06-26T11:24:33;100919.60;;;
79495;BMP180;68951;53.130;18.104;2023-06-26T11:27:01;100917.20;;;
79495;BMP180;68951;53.130;18.104;2023-06-26T11:29:30;100921.60;;;
79495;BMP180;68951;53.130;18.104;2023-06-26T11:32:02;100917.40;;;
79495;BMP180;68951;53.130;18.104;2023-06-26T11:34:30;100916.20;;;
79495;BMP180;68951;53.130;18.104;2023-06-26T11:36:58;100915.80;;;
79495;BMP180;68951;53.130;18.104;2023-06-26T11:39:27;100918.20;;;
79495;BMP180;68951;53.130;18.104;2023-06-26T11:41:54;100917.00;;;
79495;BMP180;68951;53.130;18.104;2023-06-26T11:44:21;100919.20;;;
79495;BMP180;68951;53.130;18.104;2023-06-26T11:46:51;100917.40;;;
79495;BMP180;68951;53.130;18.104;2023-06-26T11:49:18;100922.80;;;
79495;BMP180;68951;53.130;18.104;2023-06-26T11:51:47;100913.00;;;
79495;BMP180;68951;53.130;18.104;2023-06-26T11:54:14;100915.40;;;
79495;BMP180;68951;53.130;18.104;2023-06-26T11:56:41;100910.60;;;
79495;BMP180;68951;53.130;18.104;2023-06-26T11:59:11;100900.20;;;
79495;BMP180;68951;53.130;18.104;2023-06-26T12:01:42;100896.00;;;
79495;BMP180;68951;53.130;18.104;2023-06-26T12:04:16;100899.40;;;
79495;BMP180;68951;53.130;18.104;2023-06-26T12:06:50;100896.60;;;
79495;BMP180;68951;53.130;18.104;2023-06-26T12:09:21;100897.20;;;
79495;BMP180;68951;53.130;18.104;2023-06-26T12:11:53;100899.60;;;
79495;BMP180;68951;53.130;18.104;2023-06-26T12:14:23;100892.20;;;
79495;BMP180;68951;53.130;18.104;2023-06-26T12:16:52;100891.20;;;
79495;BMP180;68951;53.130;18.104;2023-06-26T12:19:25;100892.20;;;
79495;BMP180;68951;53.130;18.104;2023-06-26T12:21:55;100885.40;;;
79495;BMP180;68951;53.130;18.104;2023-06-26T12:24:23;100887.00;;;
79495;BMP180;68951;53.130;18.104;2023-06-26T12:26:54;100879.80;;;
79495;BMP180;68951;53.130;18.104;2023-06-26T12:29:32;100875.40;;;
79495;BMP180;68951;53.130;18.104;2023-06-26T12:32:00;100870.20;;;
79495;BMP180;68951;53.130;18.104;2023-06-26T12:34:33;100865.40;;;
79495;BMP180;68951;53.130;18.104;2023-06-26T12:37:18;100869.80;;;
79495;BMP180;68951;53.130;18.104;2023-06-26T12:39:54;100868.80;;;
79495;BMP180;68951;53.130;18.104;2023-06-26T12:42:25;100870.20;;;
79495;BMP180;68951;53.130;18.104;2023-06-26T12:44:53;100867.20;;;
79495;BMP180;68951;53.130;18.104;2023-06-26T12:47:26;100869.20;;;
79495;BMP180;68951;53.130;18.104;2023-06-26T12:49:53;100861.60;;;
79495;BMP180;68951;53.130;18.104;2023-06-26T12:52:21;100850.20;;;
79495;BMP180;68951;53.130;18.104;2023-06-26T12:54:53;100854.00;;;
79495;BMP180;68951;53.130;18.104;2023-06-26T12:57:20;100849.00;;;
79495;BMP180;68951;53.130;18.104;2023-06-26T12:59:47;100843.80;;;
79495;BMP180;68951;53.130;18.104;2023-06-26T13:02:14;100835.00;;;
79495;BMP180;68951;53.130;18.104;2023-06-26T13:04:41;100844.60;;;
79495;BMP180;68951;53.130;18.104;2023-06-26T13:07:08;100833.80;;;
79495;BMP180;68951;53.130;18.104;2023-06-26T13:09:36;100833.40;;;
79495;BMP180;68951;53.130;18.104;2023-06-26T13:12:05;100840.20;;;
79495;BMP180;68951;53.130;18.104;2023-06-26T13:14:32;100827.60;;;
79495;BMP180;68951;53.130;18.104;2023-06-26T13:17:03;100834.60;;;
79495;BMP180;68951;53.130;18.104;2023-06-26T13:19:30;100829.40;;;
79495;BMP180;68951;53.130;18.104;2023-06-26T13:21:57;100824.40;;;
79495;BMP180;68951;53.130;18.104;2023-06-26T13:24:24;100820.40;;;
79495;BMP180;68951;53.130;18.104;2023-06-26T13:26:51;100813.20;;;
79495;BMP180;68951;53.130;18.104;2023-06-26T13:29:18;100811.40;;;
79495;BMP180;68951;53.130;18.104;2023-06-26T13:31:45;100813.80;;;
79495;BMP180;68951;53.130;18.104;2023-06-26T13:34:24;100805.00;;;
79495;BMP180;68951;53.130;18.104;2023-06-26T13:36:51;100803.00;;;
79495;BMP180;68951;53.130;18.104;2023-06-26T13:39:18;100796.20;;;
79495;BMP180;68951;53.130;18.104;2023-06-26T13:41:45;100795.60;;;
79495;BMP180;68951;53.130;18.104;2023-06-26T13:44:12;100790.20;;;
79495;BMP180;68951;53.130;18.104;2023-06-26T13:46:39;100785.00;;;
79495;BMP180;68951;53.130;18.104;2023-06-26T13:49:06;100777.00;;;
79495;BMP180;68951;53.130;18.104;2023-06-26T13:51:33;100776.00;;;
79495;BMP180;68951;53.130;18.104;2023-06-26T13:54:00;100778.20;;;
79495;BMP180;68951;53.130;18.104;2023-06-26T13:56:27;100776.80;;;
79495;BMP180;68951;53.130;18.104;2023-06-26T13:58:57;100772.20;;;
79495;BMP180;68951;53.130;18.104;2023-06-26T14:01:25;100767.80;;;
79495;BMP180;68951;53.130;18.104;2023-06-26T14:03:52;100766.40;;;
79495;BMP180;68951;53.130;18.104;2023-06-26T14:06:19;100772.00;;;
79495;BMP180;68951;53.130;18.104;2023-06-26T14:08:45;100764.60;;;
79495;BMP180;68951;53.130;18.104;2023-06-26T14:11:12;100757.80;;;
79495;BMP180;68951;53.130;18.104;2023-06-26T14:13:39;100754.80;;;
79495;BMP180;68951;53.130;18.104;2023-06-26T14:16:06;100745.00;;;
79495;BMP180;68951;53.130;18.104;2023-06-26T14:18:33;100743.00;;;
79495;BMP180;68951;53.130;18.104;2023-06-26T14:21:01;100736.20;;;
79495;BMP180;68951;53.130;18.104;2023-06-26T14:23:28;100737.60;;;
79495;BMP180;68951;53.130;18.104;2023-06-26T14:25:55;100733.80;;;
79495;BMP180;68951;53.130;18.104;2023-06-26T14:28:22;100728.00;;;
79495;BMP180;68951;53.130;18.104;2023-06-26T14:30:49;100725.60;;;
79495;BMP180;68951;53.130;18.104;2023-06-26T14:33:15;100720.00;;;
79495;BMP180;68951;53.130;18.104;2023-06-26T14:35:42;100709.40;;;
79495;BMP180;68951;53.130;18.104;2023-06-26T14:38:09;100708.20;;;
79495;BMP180;68951;53.130;18.104;2023-06-26T14:40:36;100707.20;;;
79495;BMP180;68951;53.130;18.104;2023-06-26T14:43:03;100712.20;;;
79495;BMP180;68951;53.130;18.104;2023-06-26T14:45:29;100712.40;;;
79495;BMP180;68951;53.130;18.104;2023-06-26T14:47:56;100711.80;;;
79495;BMP180;68951;53.130;18.104;2023-06-26T14:50:23;100710.00;;;
79495;BMP180;68951;53.130;18.104;2023-06-26T14:52:50;100699.40;;;
79495;BMP180;68951;53.130;18.104;2023-06-26T14:55:17;100700.40;;;
79495;BMP180;68951;53.130;18.104;2023-06-26T14:57:44;100699.20;;;
79495;BMP180;68951;53.130;18.104;2023-06-26T15:00:12;100698.00;;;
79495;BMP180;68951;53.130;18.104;2023-06-26T15:02:39;100695.80;;;
79495;BMP180;68951;53.130;18.104;2023-06-26T15:05:06;100685.20;;;
79495;BMP180;68951;53.130;18.104;2023-06-26T15:07:32;100682.60;;;
79495;BMP180;68951;53.130;18.104;2023-06-26T15:09:59;100682.80;;;
79495;BMP180;68951;53.130;18.104;2023-06-26T15:12:26;100685.60;;;
79495;BMP180;68951;53.130;18.104;2023-06-26T15:14:54;100685.40;;;
79495;BMP180;68951;53.130;18.104;2023-06-26T15:17:20;100682.00;;;